Terminal Aerodrome Forecast
Issued by NWS

Home | Current Version | Previous Version | Graphics & Text | Print | Product List | Glossary On
Versions: 1 2 3 4 5 6 7 8 9 10 11 12 13 14 15 16 17 18 19 20 21 22 23 24 25 26 27 28 29 30 31 32 33 34 35 36 37
000
FTUS43 KLOT 242300
TAFORD
TAF
KORD 242340Z 2500/2606 26021G34KT P6SM VCSH OVC015
      TEMPO 2500/2504 2SM -SHSN
     FM250400 26015G28KT P6SM VCSH SCT015 OVC022
     FM250600 26014G24KT P6SM VCSH BKN025 OVC035
      TEMPO 2506/2509 2SM -SHSN BKN015 OVC025
     FM251400 27010KT P6SM SCT020 BKN035
     FM260000 24006KT P6SM SCT035=

USA.gov is the U.S. government's official web portal to all federal, state and local government web resources and services.